Time;durP1;ratioP1;P1;durP2;ratioP2;P2;SDS_P1;SDS_P2;PMS_P1;PMS_P2;Temp;Humidity;BMP_temperature;BMP_pressure;BME280_temperature;BME280_humidity;BME280_pressure;Samples;Min_cycle;Max_cycle;Signal;HPM_P1;HPM_P2
2021/03/07 00:00:22;;;;;;;7.57;6.13;;;-0.10;97.80;;;;;;4908443;29;20645;-88
2021/03/07 00:02:48;;;;;;;10.97;6.50;;;-0.20;97.80;;;;;;4922401;29;20223;-87
2021/03/07 00:05:15;;;;;;;7.87;6.43;;;-0.20;98.30;;;;;;4904999;29;20529;-87
2021/03/07 00:07:41;;;;;;;8.30;6.33;;;-0.30;99.70;;;;;;4923282;29;20447;-88
2021/03/07 00:10:10;;;;;;;8.80;5.70;;;-0.40;99.90;;;;;;4921621;29;20467;-86
2021/03/07 00:12:36;;;;;;;11.90;7.03;;;-0.50;99.90;;;;;;4920982;29;20494;-87
2021/03/07 00:15:04;;;;;;;8.43;6.33;;;-0.50;99.90;;;;;;4907124;29;20514;-88
2021/03/07 00:17:30;;;;;;;6.87;5.93;;;-0.50;99.90;;;;;;4919818;29;20447;-87
2021/03/07 00:19:56;;;;;;;7.83;6.57;;;-0.50;99.70;;;;;;4903994;29;20527;-88
2021/03/07 00:22:21;;;;;;;10.57;7.80;;;-0.60;99.90;;;;;;4904852;29;20219;-89
2021/03/07 00:24:47;;;;;;;7.90;7.00;;;-0.60;99.90;;;;;;4906089;29;20673;-88
2021/03/07 00:27:12;;;;;;;9.00;7.30;;;-0.50;99.90;;;;;;4935808;28;20223;-88
2021/03/07 00:29:38;;;;;;;7.73;6.80;;;-0.50;99.90;;;;;;4898334;29;20197;-87
2021/03/07 00:32:04;;;;;;;8.67;6.20;;;-0.70;99.90;;;;;;4906342;29;20460;-88
2021/03/07 00:34:30;;;;;;;6.77;5.27;;;-0.70;99.90;;;;;;4903952;29;20195;-88
2021/03/07 00:36:55;;;;;;;8.00;6.93;;;-0.70;99.90;;;;;;4903126;29;20452;-88
2021/03/07 00:39:21;;;;;;;8.77;7.00;;;-0.70;99.90;;;;;;4923372;29;20188;-89
2021/03/07 00:41:47;;;;;;;9.93;7.37;;;-0.80;99.90;;;;;;4907330;29;20203;-89
2021/03/07 00:44:12;;;;;;;8.97;7.63;;;-0.80;99.90;;;;;;4905497;29;20191;-88
2021/03/07 00:46:43;;;;;;;7.50;6.67;;;-0.90;99.90;;;;;;4903975;29;20192;-88
2021/03/07 00:49:09;;;;;;;9.30;7.57;;;-0.90;99.90;;;;;;4906205;29;20452;-89
2021/03/07 00:51:36;;;;;;;7.68;6.60;;;-0.90;99.90;;;;;;4904473;29;20179;-89
2021/03/07 00:54:02;;;;;;;10.17;7.47;;;-0.80;99.90;;;;;;4937591;28;20196;-89
2021/03/07 00:56:27;;;;;;;8.52;6.47;;;-0.80;99.90;;;;;;4918502;29;20462;-90
2021/03/07 00:58:53;;;;;;;9.43;7.07;;;-0.80;99.90;;;;;;4905807;29;20191;-90
2021/03/07 01:01:19;;;;;;;7.73;6.93;;;-0.80;99.90;;;;;;4905540;29;20323;-90
2021/03/07 01:03:45;;;;;;;6.97;5.60;;;-0.80;99.90;;;;;;4903435;29;21764;-89
2021/03/07 01:06:10;;;;;;;9.07;6.10;;;-0.70;99.90;;;;;;4905260;29;20187;-89
2021/03/07 01:08:36;;;;;;;8.33;6.63;;;-0.70;99.40;;;;;;4906646;29;20510;-89
2021/03/07 01:11:02;;;;;;;7.43;6.53;;;-0.70;99.20;;;;;;4923087;29;20211;-89
2021/03/07 01:13:28;;;;;;;7.70;6.40;;;-0.70;98.90;;;;;;4902607;29;20960;-88
2021/03/07 01:15:54;;;;;;;9.60;6.90;;;-0.70;99.10;;;;;;4908084;29;20758;-90
2021/03/07 01:18:19;;;;;;;8.20;6.80;;;-0.70;99.00;;;;;;4920312;29;20451;-90
2021/03/07 01:20:46;;;;;;;9.63;7.07;;;-0.70;99.30;;;;;;4906539;29;20546;-90
2021/03/07 01:23:16;;;;;;;8.60;5.60;;;-0.60;99.30;;;;;;4921164;29;20223;-90
2021/03/07 01:25:42;;;;;;;6.18;5.57;;;-0.70;99.50;;;;;;4903315;29;20199;-89
2021/03/07 01:28:08;;;;;;;9.03;6.10;;;-0.70;99.30;;;;;;4906931;29;20282;-89
2021/03/07 01:30:39;;;;;;;8.23;7.30;;;-0.70;99.50;;;;;;4901725;29;20459;-89
2021/03/07 01:33:06;;;;;;;8.90;7.07;;;-0.70;99.30;;;;;;4906448;29;20450;-89
2021/03/07 01:35:33;;;;;;;9.60;6.70;;;-0.70;99.50;;;;;;4922445;29;20215;-90
2021/03/07 01:37:58;;;;;;;9.73;7.53;;;-0.70;99.60;;;;;;4905609;29;20452;-89
2021/03/07 01:40:47;;;;;;;9.07;7.43;;;-0.80;99.80;;;;;;4922568;29;20207;-88
2021/03/07 01:43:14;;;;;;;8.10;6.97;;;-0.80;99.60;;;;;;4920486;29;20223;-90
2021/03/07 01:45:40;;;;;;;8.00;6.97;;;-0.80;99.70;;;;;;4919241;29;20242;-88
2021/03/07 01:48:08;;;;;;;7.63;6.60;;;-0.80;99.90;;;;;;4922991;29;20451;-88
2021/03/07 01:50:36;;;;;;;7.88;6.70;;;-0.80;99.90;;;;;;4906488;29;20883;-88
2021/03/07 01:53:02;;;;;;;8.70;6.38;;;-0.90;99.90;;;;;;4922843;29;20195;-87
2021/03/07 01:55:33;;;;;;;11.00;6.53;;;-0.90;99.90;;;;;;4905340;29;20778;-88
2021/03/07 01:58:22;;;;;;;6.97;5.88;;;-1.00;99.90;;;;;;4902624;29;20471;-88
2021/03/07 02:00:47;;;;;;;10.00;6.27;;;-1.00;99.90;;;;;;4917675;29;20193;-90
2021/03/07 02:03:14;;;;;;;6.73;5.20;;;-1.00;99.90;;;;;;4905117;29;20485;-90
2021/03/07 02:05:40;;;;;;;9.30;6.72;;;-1.00;99.90;;;;;;4902558;29;20180;-90
2021/03/07 02:08:06;;;;;;;8.45;6.63;;;-1.10;99.90;;;;;;4905428;29;20191;-90
2021/03/07 02:10:43;;;;;;;8.18;6.40;;;-1.20;99.90;;;;;;4905138;29;20270;-88
2021/03/07 02:13:20;;;;;;;9.95;7.40;;;-1.20;99.90;;;;;;4916977;29;20199;-91
2021/03/07 02:15:50;;;;;;;12.73;7.90;;;-1.20;99.90;;;;;;4900846;29;20195;-89
2021/03/07 02:18:16;;;;;;;8.10;7.28;;;-1.30;99.90;;;;;;4915571;29;20195;-90
2021/03/07 02:21:10;;;;;;;11.15;8.23;;;-1.40;99.90;;;;;;4921036;29;20574;-91
2021/03/07 02:23:50;;;;;;;10.48;7.38;;;-1.30;99.90;;;;;;4915571;29;20223;-90
2021/03/07 02:26:16;;;;;;;9.40;6.82;;;-1.40;99.90;;;;;;4919629;29;20191;-90
2021/03/07 02:28:42;;;;;;;12.63;7.18;;;-1.40;99.90;;;;;;4907649;29;20192;-90
2021/03/07 02:31:08;;;;;;;9.80;6.93;;;-1.40;99.90;;;;;;4902808;29;20204;-90
2021/03/07 02:33:40;;;;;;;9.23;6.83;;;-1.50;99.90;;;;;;4905962;29;20286;-87
2021/03/07 02:36:10;;;;;;;9.32;7.28;;;-1.40;99.90;;;;;;4905272;29;20216;-90
2021/03/07 02:38:42;;;;;;;9.35;6.85;;;-1.50;99.90;;;;;;4904192;29;20188;-89
2021/03/07 02:41:10;;;;;;;10.88;8.02;;;-1.50;99.90;;;;;;4902437;29;20819;-89
2021/03/07 02:43:43;;;;;;;8.93;7.22;;;-1.50;99.90;;;;;;4921823;29;20238;-91
2021/03/07 02:46:12;;;;;;;9.88;7.30;;;-1.50;99.90;;;;;;4925688;29;20199;-90
2021/03/07 02:48:39;;;;;;;9.07;7.40;;;-1.60;99.90;;;;;;4910270;29;20195;-89
2021/03/07 02:51:07;;;;;;;12.93;7.15;;;-1.70;99.90;;;;;;4908064;29;20190;-89
2021/03/07 02:53:34;;;;;;;14.00;7.32;;;-1.80;99.90;;;;;;4909544;29;21111;-90
2021/03/07 02:56:04;;;;;;;10.85;7.30;;;-1.70;99.90;;;;;;4906058;29;20566;-88
2021/03/07 02:58:32;;;;;;;10.18;7.22;;;-1.80;99.90;;;;;;4920406;29;20226;-89
2021/03/07 03:01:01;;;;;;;8.02;6.50;;;-1.70;99.90;;;;;;4920158;29;20180;-90
2021/03/07 03:03:32;;;;;;;8.68;6.82;;;-1.70;99.90;;;;;;4908761;29;20379;-90
2021/03/07 03:06:03;;;;;;;6.50;5.78;;;-1.80;99.90;;;;;;4909938;29;20191;-89
2021/03/07 03:08:31;;;;;;;7.07;5.57;;;-1.80;99.90;;;;;;4905949;29;20184;-88
2021/03/07 03:10:58;;;;;;;9.10;6.20;;;-1.80;99.90;;;;;;4905713;29;20187;-88
2021/03/07 03:13:25;;;;;;;8.18;6.05;;;-1.80;99.90;;;;;;4922519;29;20206;-88
2021/03/07 03:15:52;;;;;;;8.82;6.63;;;-1.90;99.90;;;;;;4908421;29;20187;-88
2021/03/07 03:18:20;;;;;;;6.47;5.70;;;-1.80;99.90;;;;;;4906641;29;20290;-89
2021/03/07 03:20:47;;;;;;;8.57;6.95;;;-1.90;99.90;;;;;;4907579;29;20200;-89
2021/03/07 03:23:14;;;;;;;10.27;7.00;;;-1.90;99.90;;;;;;4909692;29;20215;-89
2021/03/07 03:25:39;;;;;;;9.55;6.05;;;-2.00;99.90;;;;;;4925505;29;20619;-90
2021/03/07 03:28:07;;;;;;;11.00;6.30;;;-2.00;99.90;;;;;;4908950;29;20272;-89
2021/03/07 03:30:34;;;;;;;10.52;7.00;;;-2.00;99.90;;;;;;4905938;29;20456;-89
2021/03/07 03:33:00;;;;;;;8.82;6.32;;;-2.00;99.90;;;;;;4909543;29;20190;-89
2021/03/07 03:35:25;;;;;;;8.83;6.60;;;-2.00;99.90;;;;;;4924435;29;20809;-89
2021/03/07 03:37:51;;;;;;;9.50;7.07;;;-2.00;99.90;;;;;;4908341;29;20202;-89
2021/03/07 03:40:24;;;;;;;10.97;7.20;;;-2.10;99.90;;;;;;4921971;29;20431;-89
2021/03/07 03:42:58;;;;;;;9.35;6.40;;;-2.20;99.90;;;;;;4937206;28;20222;-89
2021/03/07 03:45:26;;;;;;;9.93;6.75;;;-2.20;99.90;;;;;;4906092;29;20525;-89
2021/03/07 03:47:59;;;;;;;10.65;6.90;;;-2.30;99.90;;;;;;4908029;29;20203;-89
2021/03/07 03:50:28;;;;;;;9.80;6.18;;;-2.20;99.90;;;;;;4905831;29;20840;-90
2021/03/07 03:52:55;;;;;;;8.55;6.65;;;-2.20;99.90;;;;;;4919718;29;20282;-90
2021/03/07 03:55:27;;;;;;;8.23;6.15;;;-2.30;99.90;;;;;;4908481;29;20214;-90
2021/03/07 03:58:02;;;;;;;7.70;6.15;;;-2.40;99.90;;;;;;4918395;29;20247;-90
2021/03/07 04:00:28;;;;;;;9.27;5.90;;;-2.40;99.90;;;;;;4906517;29;20221;-87
2021/03/07 04:02:57;;;;;;;9.82;7.13;;;-2.30;99.90;;;;;;4904433;29;20234;-88
2021/03/07 04:05:25;;;;;;;9.18;6.90;;;-2.20;99.90;;;;;;4922333;29;20211;-88
2021/03/07 04:07:52;;;;;;;7.72;5.85;;;-2.10;99.90;;;;;;4922268;29;20233;-87
2021/03/07 04:10:19;;;;;;;9.10;6.32;;;-2.10;99.90;;;;;;4907433;29;20192;-88
2021/03/07 04:12:53;;;;;;;7.65;6.05;;;-2.20;99.90;;;;;;4903365;29;20212;-88
2021/03/07 04:15:20;;;;;;;9.30;6.70;;;-2.30;99.90;;;;;;4914568;29;20195;-88
2021/03/07 04:17:50;;;;;;;8.65;6.45;;;-2.20;99.90;;;;;;4904372;29;20195;-87
2021/03/07 04:20:16;;;;;;;7.90;6.10;;;-2.20;99.90;;;;;;4923716;29;20281;-89
2021/03/07 04:22:42;;;;;;;7.90;5.93;;;-2.10;99.90;;;;;;4908317;29;20234;-88
2021/03/07 04:25:10;;;;;;;11.93;6.70;;;-2.10;99.90;;;;;;4906876;29;20194;-88
2021/03/07 04:27:37;;;;;;;7.30;5.65;;;-2.20;99.90;;;;;;4919476;29;20455;-89
2021/03/07 04:30:05;;;;;;;8.15;6.03;;;-2.20;99.90;;;;;;4920747;29;20206;-88
2021/03/07 04:32:32;;;;;;;8.38;6.32;;;-2.20;99.90;;;;;;4925586;29;20294;-88
2021/03/07 04:34:58;;;;;;;7.72;5.30;;;-2.20;99.90;;;;;;4905835;29;20303;-89
2021/03/07 04:37:24;;;;;;;9.15;6.57;;;-2.30;99.90;;;;;;4908622;29;20596;-88
2021/03/07 04:39:50;;;;;;;8.17;6.23;;;-2.40;99.90;;;;;;4921010;29;20198;-88
2021/03/07 04:42:16;;;;;;;8.98;6.95;;;-2.30;99.90;;;;;;4921982;29;20250;-88
2021/03/07 04:44:42;;;;;;;6.47;5.83;;;-2.30;99.90;;;;;;4906128;29;20212;-88
2021/03/07 04:47:07;;;;;;;9.53;6.27;;;-2.40;99.90;;;;;;4904824;29;20450;-88
2021/03/07 04:49:33;;;;;;;8.10;6.13;;;-2.40;99.90;;;;;;4907179;29;20210;-88
2021/03/07 04:51:59;;;;;;;8.43;6.07;;;-2.30;99.90;;;;;;4905582;29;20186;-87
2021/03/07 04:54:24;;;;;;;5.83;5.33;;;-2.30;99.90;;;;;;4904437;29;20672;-87
2021/03/07 04:56:50;;;;;;;7.37;6.03;;;-2.30;99.90;;;;;;4925483;29;20191;-87
2021/03/07 04:59:16;;;;;;;7.83;6.10;;;-2.30;99.90;;;;;;4922133;29;20741;-87
2021/03/07 05:01:42;;;;;;;8.68;6.45;;;-2.30;99.90;;;;;;4923867;29;20258;-89
2021/03/07 05:04:08;;;;;;;10.57;7.10;;;-2.30;99.90;;;;;;4904670;29;20192;-88
2021/03/07 05:06:41;;;;;;;10.37;7.30;;;-2.20;99.90;;;;;;4904534;29;20675;-89
2021/03/07 05:09:08;;;;;;;10.00;7.03;;;-2.20;99.90;;;;;;4907778;29;20206;-87
2021/03/07 05:11:34;;;;;;;8.48;6.53;;;-2.10;99.90;;;;;;4906598;29;20196;-88
2021/03/07 05:14:00;;;;;;;8.18;6.75;;;-2.10;99.90;;;;;;4905929;29;20202;-88
2021/03/07 05:16:27;;;;;;;7.60;6.68;;;-2.10;99.90;;;;;;4921437;29;20195;-88
2021/03/07 05:18:53;;;;;;;9.60;6.30;;;-2.30;99.90;;;;;;4920320;29;20196;-88
2021/03/07 05:21:18;;;;;;;8.33;6.83;;;-2.30;99.90;;;;;;4923834;29;20239;-87
2021/03/07 05:23:44;;;;;;;10.77;6.27;;;-2.20;99.90;;;;;;4919980;29;20227;-87
2021/03/07 05:26:10;;;;;;;8.57;6.97;;;-2.20;99.90;;;;;;4904641;29;20194;-88
2021/03/07 05:28:36;;;;;;;7.70;5.70;;;-2.20;99.90;;;;;;4906959;29;20203;-89
2021/03/07 05:31:02;;;;;;;7.70;6.07;;;-2.20;99.90;;;;;;4905083;29;20892;-89
2021/03/07 05:33:28;;;;;;;8.95;6.38;;;-2.30;99.90;;;;;;4907194;29;20197;-88
2021/03/07 05:35:54;;;;;;;9.65;6.80;;;-2.30;99.90;;;;;;4920249;29;20685;-87
2021/03/07 05:38:21;;;;;;;8.27;5.93;;;-2.30;99.90;;;;;;4902206;29;20199;-86
2021/03/07 05:40:46;;;;;;;7.05;6.25;;;-2.40;99.90;;;;;;4905169;29;20207;-88
2021/03/07 05:43:12;;;;;;;8.70;6.07;;;-2.30;99.90;;;;;;4905308;29;20231;-89
2021/03/07 05:45:38;;;;;;;8.50;6.60;;;-2.40;99.90;;;;;;4919848;28;20242;-88
2021/03/07 05:48:04;;;;;;;8.30;6.47;;;-2.30;99.90;;;;;;4906283;29;20190;-89
2021/03/07 05:50:30;;;;;;;9.25;6.10;;;-2.30;99.90;;;;;;4905310;29;20450;-88
2021/03/07 05:52:59;;;;;;;8.60;5.73;;;-2.30;99.90;;;;;;4920049;28;20215;-88
2021/03/07 05:55:27;;;;;;;11.07;6.45;;;-2.30;99.90;;;;;;4918792;29;20249;-89
2021/03/07 05:57:57;;;;;;;9.60;6.10;;;-2.30;99.90;;;;;;4922130;29;20312;-89
2021/03/07 06:00:23;;;;;;;6.80;5.70;;;-2.30;99.90;;;;;;4906245;29;20277;-89
2021/03/07 06:02:48;;;;;;;8.73;6.07;;;-2.30;99.90;;;;;;4905409;29;20231;-88
2021/03/07 06:05:15;;;;;;;11.20;7.27;;;-2.30;99.90;;;;;;4908112;29;20250;-88
2021/03/07 06:07:42;;;;;;;9.15;7.15;;;-2.30;99.90;;;;;;4920638;29;20659;-88
2021/03/07 06:10:25;;;;;;;14.90;7.03;;;-2.30;99.90;;;;;;4921090;29;20194;-89
2021/03/07 06:13:05;;;;;;;11.18;7.88;;;-2.20;99.90;;;;;;4922621;29;20594;-89
2021/03/07 06:15:32;;;;;;;9.20;7.65;;;-2.30;99.90;;;;;;4903570;29;20211;-88
2021/03/07 06:17:58;;;;;;;10.65;7.78;;;-2.40;99.90;;;;;;4904825;29;20538;-88
2021/03/07 06:20:25;;;;;;;10.07;7.40;;;-2.40;99.90;;;;;;4920568;29;20187;-88
2021/03/07 06:23:00;;;;;;;12.93;8.57;;;-2.40;99.90;;;;;;4907910;29;20605;-89
2021/03/07 06:25:29;;;;;;;11.38;8.25;;;-2.50;99.90;;;;;;4904477;29;20190;-88
2021/03/07 06:27:55;;;;;;;13.18;8.13;;;-2.40;99.90;;;;;;4905109;29;20194;-88
2021/03/07 06:30:26;;;;;;;13.00;7.82;;;-2.20;99.90;;;;;;4904128;29;20466;-89
2021/03/07 06:32:54;;;;;;;11.18;7.00;;;-2.20;99.90;;;;;;4906418;29;20577;-89
2021/03/07 06:35:21;;;;;;;8.80;7.40;;;-2.00;99.90;;;;;;4900522;29;21415;-88
2021/03/07 06:37:56;;;;;;;9.98;7.55;;;-2.00;99.90;;;;;;4918781;29;20226;-87
2021/03/07 06:40:36;;;;;;;10.95;7.88;;;-1.90;99.90;;;;;;4921337;29;20186;-88
2021/03/07 06:43:17;;;;;;;11.15;7.38;;;-1.90;99.90;;;;;;4918328;29;20559;-88
2021/03/07 06:45:43;;;;;;;8.07;5.72;;;-1.70;99.90;;;;;;4918680;29;20202;-89
2021/03/07 06:48:10;;;;;;;10.60;7.47;;;-1.60;99.90;;;;;;4921719;29;20629;-88
2021/03/07 06:50:50;;;;;;;7.45;6.13;;;-1.40;99.90;;;;;;4902251;29;20508;-88
2021/03/07 06:53:31;;;;;;;8.10;6.45;;;-1.30;99.90;;;;;;4922362;29;20235;-89
2021/03/07 06:55:57;;;;;;;10.98;6.45;;;-1.20;99.90;;;;;;4935118;28;20549;-88
2021/03/07 06:58:23;;;;;;;7.00;6.30;;;-1.10;99.90;;;;;;4905546;29;20191;-89
2021/03/07 07:00:48;;;;;;;8.70;7.00;;;-0.90;99.90;;;;;;4921097;29;20918;-88
2021/03/07 07:03:16;;;;;;;8.83;7.30;;;-0.90;99.90;;;;;;4922094;29;20622;-89
2021/03/07 07:05:44;;;;;;;9.57;7.63;;;-0.80;99.90;;;;;;4904155;29;20590;-89
2021/03/07 07:08:12;;;;;;;10.30;8.15;;;-0.60;99.90;;;;;;4906911;29;20702;-89
2021/03/07 07:10:57;;;;;;;24.88;13.18;;;-0.40;99.90;;;;;;4921109;29;20192;-90
2021/03/07 07:13:24;;;;;;;30.05;14.77;;;-0.30;99.90;;;;;;4919786;29;20188;-90
2021/03/07 07:16:04;;;;;;;21.40;12.07;;;-0.20;99.90;;;;;;4919315;29;20615;-90
2021/03/07 07:18:35;;;;;;;12.63;8.70;;;0.00;99.90;;;;;;4904162;29;21889;-88
2021/03/07 07:21:04;;;;;;;8.10;7.10;;;0.20;99.90;;;;;;4906283;29;20546;-90
2021/03/07 07:23:30;;;;;;;8.60;6.83;;;0.40;99.90;;;;;;4919037;28;20595;-90
2021/03/07 07:25:55;;;;;;;7.33;6.10;;;0.60;99.90;;;;;;4918378;29;20546;-91
2021/03/07 07:28:23;;;;;;;7.23;5.63;;;0.80;99.90;;;;;;4906621;29;20204;-91
2021/03/07 07:30:53;;;;;;;7.30;5.90;;;0.90;99.90;;;;;;4909660;29;20291;-89
2021/03/07 07:33:45;;;;;;;6.40;5.57;;;1.00;99.90;;;;;;4924159;29;20928;-89
2021/03/07 07:36:20;;;;;;;7.33;5.90;;;1.10;99.90;;;;;;4922288;29;20445;-89
2021/03/07 07:38:47;;;;;;;7.13;5.47;;;1.30;99.90;;;;;;4908774;29;20521;-88
2021/03/07 07:41:38;;;;;;;8.27;5.13;;;1.50;99.20;;;;;;4924064;29;20474;-90
2021/03/07 07:44:10;;;;;;;8.33;5.63;;;1.70;98.00;;;;;;4926013;29;20455;-89
2021/03/07 07:47:02;;;;;;;7.50;6.00;;;1.90;97.00;;;;;;4905128;29;20452;-91
2021/03/07 07:49:34;;;;;;;10.90;6.37;;;2.00;96.30;;;;;;4907342;29;20459;-91
2021/03/07 07:52:00;;;;;;;7.70;6.00;;;2.20;96.30;;;;;;4921458;29;20455;-88
2021/03/07 07:54:54;;;;;;;9.67;6.40;;;2.40;96.00;;;;;;4911782;29;20454;-91
2021/03/07 07:57:32;;;;;;;7.20;6.50;;;2.70;95.20;;;;;;4925090;29;20188;-90
2021/03/07 08:00:13;;;;;;;7.63;6.80;;;2.80;95.10;;;;;;4922627;28;20576;-90
2021/03/07 08:02:50;;;;;;;9.87;6.80;;;2.90;94.20;;;;;;4906729;29;21954;-90
2021/03/07 08:05:26;;;;;;;10.50;6.93;;;3.20;94.20;;;;;;4923186;28;20490;-94
2021/03/07 08:07:58;;;;;;;7.40;6.50;;;3.30;93.60;;;;;;4921867;29;20435;-93
2021/03/07 08:10:39;;;;;;;8.77;6.00;;;3.40;93.50;;;;;;4922203;28;20518;-91
2021/03/07 08:13:10;;;;;;;7.80;7.00;;;3.50;93.80;;;;;;4929108;29;20451;-95
2021/03/07 08:15:50;;;;;;;7.40;6.70;;;3.70;93.10;;;;;;4916835;29;20506;-92
2021/03/07 08:18:45;;;;;;;8.20;6.47;;;3.80;91.70;;;;;;4909306;29;20863;-94
2021/03/07 08:21:14;;;;;;;8.10;7.17;;;4.00;92.60;;;;;;4924139;28;20589;-93
2021/03/07 08:23:57;;;;;;;9.40;7.17;;;4.30;90.90;;;;;;4922582;29;20479;-93
2021/03/07 08:26:47;;;;;;;10.20;7.47;;;4.40;91.00;;;;;;4924662;29;20493;-93
2021/03/07 08:29:37;;;;;;;9.50;8.00;;;4.40;91.40;;;;;;4921979;29;20469;-87
2021/03/07 08:32:29;;;;;;;8.83;7.27;;;4.50;90.70;;;;;;4921061;29;20477;-87
2021/03/07 08:35:00;;;;;;;9.53;7.30;;;4.60;93.40;;;;;;4920366;29;20938;-88
2021/03/07 08:37:27;;;;;;;11.53;8.43;;;4.80;92.90;;;;;;4905852;29;20798;-88
2021/03/07 08:40:26;;;;;;;9.93;8.13;;;5.00;92.30;;;;;;4909444;29;20469;-88
2021/03/07 08:42:55;;;;;;;11.03;8.77;;;5.20;90.50;;;;;;4895711;29;20525;-88
2021/03/07 08:45:24;;;;;;;11.70;9.50;;;5.30;87.40;;;;;;4899014;29;20820;-87
2021/03/07 08:47:59;;;;;;;10.40;9.40;;;5.40;86.00;;;;;;4914759;29;20452;-88
2021/03/07 08:50:26;;;;;;;10.50;8.67;;;5.40;86.90;;;;;;4898508;29;20491;-88
2021/03/07 08:52:52;;;;;;;10.70;9.10;;;5.20;86.30;;;;;;4899780;29;20980;-87
2021/03/07 08:55:18;;;;;;;10.50;9.50;;;5.20;86.50;;;;;;4899651;29;20521;-87
2021/03/07 08:57:49;;;;;;;10.60;9.10;;;5.10;89.70;;;;;;4895670;29;21126;-88
2021/03/07 09:00:20;;;;;;;11.43;10.00;;;5.10;88.80;;;;;;4900741;29;20475;-88
2021/03/07 09:02:46;;;;;;;10.20;8.70;;;5.40;89.30;;;;;;4900720;29;20483;-90
2021/03/07 09:05:31;;;;;;;10.70;8.97;;;5.50;88.00;;;;;;4899225;29;20979;-90
2021/03/07 09:08:01;;;;;;;9.87;8.87;;;5.60;87.30;;;;;;4899056;29;20250;-89
2021/03/07 09:10:48;;;;;;;11.67;8.30;;;6.00;86.60;;;;;;4904864;29;20459;-92
2021/03/07 09:13:25;;;;;;;10.57;9.47;;;5.90;88.70;;;;;;4897598;29;20450;-91
2021/03/07 09:15:54;;;;;;;9.20;8.17;;;5.90;88.40;;;;;;4896756;29;20794;-91
2021/03/07 09:18:37;;;;;;;10.87;8.60;;;5.90;87.50;;;;;;4913120;29;20565;-89
2021/03/07 09:21:06;;;;;;;9.63;8.37;;;5.70;87.50;;;;;;4914852;29;20450;-91
2021/03/07 09:23:35;;;;;;;9.20;7.70;;;6.10;87.70;;;;;;4915593;29;20489;-91
2021/03/07 09:26:07;;;;;;;11.80;9.10;;;6.40;86.30;;;;;;4900255;29;20446;-92
2021/03/07 09:28:39;;;;;;;12.10;8.30;;;6.10;88.10;;;;;;4930012;28;20483;-91
2021/03/07 09:31:17;;;;;;;10.53;8.23;;;5.90;87.30;;;;;;4913678;29;21589;-92
2021/03/07 09:33:54;;;;;;;8.57;7.27;;;5.70;87.20;;;;;;4903552;29;20968;-93
2021/03/07 09:36:24;;;;;;;9.20;7.43;;;5.60;87.00;;;;;;4900366;29;20486;-86
2021/03/07 09:38:56;;;;;;;9.03;7.67;;;5.50;88.40;;;;;;4900930;29;20595;-93
2021/03/07 09:41:36;;;;;;;8.90;7.80;;;5.60;89.40;;;;;;4899897;29;20879;-90
2021/03/07 09:44:16;;;;;;;10.60;8.67;;;5.50;90.10;;;;;;4912097;29;20577;-90
2021/03/07 09:46:44;;;;;;;10.30;8.17;;;5.30;90.00;;;;;;4900951;29;20840;-95
2021/03/07 09:49:15;;;;;;;10.57;8.17;;;5.60;90.20;;;;;;4915759;29;20464;-93
2021/03/07 09:51:44;;;;;;;11.67;8.70;;;6.00;89.30;;;;;;4900421;29;20867;-93
2021/03/07 09:54:14;;;;;;;9.93;8.83;;;6.10;87.90;;;;;;4903466;29;20819;-93
2021/03/07 09:56:40;;;;;;;9.80;8.63;;;6.10;87.00;;;;;;4912262;29;20489;-87
2021/03/07 09:59:17;;;;;;;10.60;8.70;;;6.20;88.00;;;;;;4900128;29;20541;-88
2021/03/07 10:02:09;;;;;;;15.77;12.63;;;6.30;89.80;;;;;;4910376;29;20450;-87
2021/03/07 10:04:40;;;;;;;11.73;9.23;;;6.30;90.90;;;;;;4909359;29;20509;-88
2021/03/07 10:07:13;;;;;;;10.90;9.20;;;6.30;90.70;;;;;;4927206;28;20490;-87
2021/03/07 10:10:16;;;;;;;9.40;8.40;;;6.30;90.50;;;;;;4912168;29;20725;-87
2021/03/07 10:12:45;;;;;;;9.47;8.43;;;6.30;90.40;;;;;;4897043;29;20473;-87
2021/03/07 10:15:32;;;;;;;12.60;9.90;;;6.40;90.40;;;;;;4896285;29;20454;-88
2021/03/07 10:18:18;;;;;;;14.07;11.03;;;6.60;90.80;;;;;;4897468;29;20498;-88
2021/03/07 10:20:55;;;;;;;12.90;10.03;;;7.10;92.50;;;;;;4899143;29;20452;-87
2021/03/07 10:23:26;;;;;;;11.57;9.63;;;7.60;90.70;;;;;;4928358;28;20521;-88
2021/03/07 10:25:52;;;;;;;12.00;10.00;;;8.40;86.30;;;;;;4897252;29;20754;-88
2021/03/07 10:28:25;;;;;;;11.73;10.03;;;8.90;79.50;;;;;;4898982;29;20783;-91
2021/03/07 10:30:52;;;;;;;13.73;10.70;;;9.40;76.60;;;;;;4904983;29;20192;-94
2021/03/07 10:33:19;;;;;;;13.40;11.03;;;9.90;72.40;;;;;;4899451;29;20557;-87
2021/03/07 10:36:17;;;;;;;11.30;10.17;;;9.50;70.00;;;;;;4913124;29;20455;-87
2021/03/07 10:38:50;;;;;;;11.60;10.30;;;9.10;69.60;;;;;;4910110;29;20478;-88
2021/03/07 10:41:20;;;;;;;10.97;9.77;;;9.40;71.90;;;;;;4895830;29;20447;-86
2021/03/07 10:43:47;;;;;;;11.50;10.10;;;9.60;71.50;;;;;;4915722;29;20848;-87
2021/03/07 10:46:28;;;;;;;13.23;11.17;;;10.10;76.80;;;;;;4895372;29;20491;-87
2021/03/07 10:49:00;;;;;;;14.40;10.20;;;10.40;74.70;;;;;;4894684;29;21186;-87
2021/03/07 10:51:27;;;;;;;13.10;11.10;;;10.80;70.90;;;;;;4898383;29;20450;-87
2021/03/07 10:53:53;;;;;;;12.53;10.70;;;11.00;60.90;;;;;;4898251;29;20548;-85
2021/03/07 10:56:19;;;;;;;13.03;11.33;;;11.30;59.90;;;;;;4911253;29;20459;-85
2021/03/07 10:58:45;;;;;;;12.70;11.40;;;11.90;61.20;;;;;;4895229;29;20828;-86
2021/03/07 11:01:16;;;;;;;13.27;11.93;;;12.20;55.40;;;;;;4915732;29;20527;-92
2021/03/07 11:03:44;;;;;;;13.90;12.23;;;12.50;58.80;;;;;;4929003;29;20602;-91
2021/03/07 11:06:12;;;;;;;12.90;11.60;;;12.40;54.40;;;;;;4903884;29;20998;-92
2021/03/07 11:08:38;;;;;;;12.73;11.43;;;12.10;55.70;;;;;;4901772;29;20459;-88
2021/03/07 11:11:04;;;;;;;12.33;11.03;;;11.40;56.30;;;;;;4902388;29;20442;-89
2021/03/07 11:13:30;;;;;;;13.73;11.70;;;10.90;58.50;;;;;;4902100;29;20455;-92
2021/03/07 11:15:56;;;;;;;15.53;11.40;;;10.50;63.30;;;;;;4919828;29;20455;-91
2021/03/07 11:18:22;;;;;;;13.00;11.17;;;10.30;62.90;;;;;;4919011;29;20449;-91
2021/03/07 11:20:48;;;;;;;12.13;10.83;;;10.00;65.60;;;;;;4906304;29;20537;-90
2021/03/07 11:23:14;;;;;;;12.57;11.27;;;9.70;64.50;;;;;;4904775;29;20234;-91
2021/03/07 11:25:40;;;;;;;14.60;11.07;;;10.20;65.40;;;;;;4900334;29;20439;-91
2021/03/07 11:28:06;;;;;;;12.50;10.87;;;11.00;61.10;;;;;;4904358;29;20498;-91
2021/03/07 11:30:32;;;;;;;13.90;12.30;;;11.00;59.60;;;;;;4904150;29;20206;-90
2021/03/07 11:32:57;;;;;;;12.67;11.37;;;11.10;60.80;;;;;;4900199;29;20205;-90
2021/03/07 11:35:23;;;;;;;14.47;11.90;;;11.20;63.90;;;;;;4920369;29;20509;-91
2021/03/07 11:37:51;;;;;;;13.10;11.60;;;11.40;58.40;;;;;;4923962;29;20205;-90
2021/03/07 11:40:16;;;;;;;12.47;11.20;;;11.70;59.10;;;;;;4905837;29;20759;-91
2021/03/07 11:42:42;;;;;;;12.60;11.30;;;12.30;59.10;;;;;;4918787;29;20479;-92
2021/03/07 11:45:08;;;;;;;12.70;11.40;;;12.20;56.50;;;;;;4906187;29;20192;-90
2021/03/07 11:47:34;;;;;;;14.80;11.83;;;12.30;56.80;;;;;;4907255;29;20814;-91
2021/03/07 11:50:00;;;;;;;12.27;11.07;;;12.50;57.90;;;;;;4910034;29;20473;-92
2021/03/07 11:52:25;;;;;;;14.37;12.90;;;12.80;58.50;;;;;;4904859;29;20200;-90
2021/03/07 11:54:51;;;;;;;13.03;11.73;;;12.90;57.00;;;;;;4904571;29;20207;-91
2021/03/07 11:57:17;;;;;;;14.23;12.80;;;13.00;57.90;;;;;;4904602;29;20188;-91
2021/03/07 11:59:42;;;;;;;13.77;12.30;;;13.20;56.00;;;;;;4911049;29;20200;-91
2021/03/07 12:02:08;;;;;;;15.00;11.77;;;13.20;55.20;;;;;;4919599;29;20247;-90
2021/03/07 12:04:34;;;;;;;12.43;11.13;;;13.20;57.90;;;;;;4904544;29;20184;-91
2021/03/07 12:07:00;;;;;;;14.90;11.83;;;13.30;59.20;;;;;;4905217;29;20806;-91
2021/03/07 12:09:25;;;;;;;13.20;10.90;;;13.30;55.00;;;;;;4904009;29;20851;-92
2021/03/07 12:11:51;;;;;;;12.90;11.60;;;13.60;54.10;;;;;;4906692;29;20195;-92
2021/03/07 12:14:17;;;;;;;13.13;11.73;;;13.90;53.30;;;;;;4903811;29;20192;-90
2021/03/07 12:16:42;;;;;;;13.70;12.33;;;14.40;53.00;;;;;;4904237;29;20187;-92
2021/03/07 12:19:09;;;;;;;13.60;11.73;;;14.70;51.60;;;;;;4899973;29;20237;-91
2021/03/07 12:21:34;;;;;;;14.20;12.13;;;14.00;50.10;;;;;;4919483;29;22766;-91
2021/03/07 12:24:00;;;;;;;12.37;11.17;;;14.20;49.80;;;;;;4903928;29;20491;-92
2021/03/07 12:26:27;;;;;;;15.37;12.40;;;14.40;48.80;;;;;;4905826;29;20230;-92
2021/03/07 12:28:52;;;;;;;13.27;11.80;;;14.60;49.70;;;;;;4902829;29;20294;-92
2021/03/07 12:31:19;;;;;;;13.77;12.37;;;14.80;49.00;;;;;;4903515;29;20467;-92
2021/03/07 12:33:44;;;;;;;14.30;12.53;;;14.80;46.50;;;;;;4902292;29;20195;-92
2021/03/07 12:36:10;;;;;;;13.53;11.53;;;15.30;46.60;;;;;;4906788;29;20447;-92
2021/03/07 12:38:36;;;;;;;13.10;11.80;;;15.30;48.10;;;;;;4903185;29;20242;-92
2021/03/07 12:41:02;;;;;;;14.57;11.90;;;15.30;46.70;;;;;;4904972;29;20667;-92
2021/03/07 12:43:28;;;;;;;13.13;11.83;;;15.40;46.90;;;;;;4907450;29;20249;-91
2021/03/07 12:45:54;;;;;;;13.50;12.10;;;15.20;45.90;;;;;;4902508;29;20960;-92
2021/03/07 12:48:19;;;;;;;12.80;11.50;;;15.50;46.90;;;;;;4901154;29;20196;-91
2021/03/07 12:50:45;;;;;;;13.30;11.93;;;16.00;44.70;;;;;;4905202;29;20663;-91
2021/03/07 12:53:10;;;;;;;12.07;10.87;;;16.10;44.90;;;;;;4907289;29;20724;-91
2021/03/07 12:55:36;;;;;;;16.77;12.30;;;16.10;43.80;;;;;;4903602;29;20763;-91